Time;durP1;ratioP1;P1;durP2;ratioP2;P2;SDS_P1;SDS_P2;PMS_P1;PMS_P2;Temp;Humidity;BMP_temperature;BMP_pressure;BME280_temperature;BME280_humidity;BME280_pressure;Samples;Min_cycle;Max_cycle;Signal;HPM_P1;HPM_P2
2023/03/08 00:01:49;;;;;;;;;6.80;6.00;;;;;1.94;82.10;98343.81;5099283;28;8856;-60
2023/03/08 00:04:16;;;;;;;;;7.00;7.00;;;;;1.94;81.82;98342.03;5099482;28;8887;-59
2023/03/08 00:06:45;;;;;;;;;7.60;6.80;;;;;1.95;81.40;98348.09;5099632;28;8832;-59
2023/03/08 00:09:12;;;;;;;;;7.00;5.60;;;;;1.96;82.10;98349.81;5098936;28;8840;-59
2023/03/08 00:11:40;;;;;;;;;5.20;3.00;;;;;1.97;82.07;98346.25;5098989;28;8828;-59
2023/03/08 00:14:08;;;;;;;;;7.00;5.60;;;;;1.98;81.72;98348.72;5098817;28;9454;-60
2023/03/08 00:16:35;;;;;;;;;6.40;5.60;;;;;1.98;82.12;98350.53;5098713;28;8850;-59
2023/03/08 00:19:03;;;;;;;;;5.60;4.40;;;;;1.97;82.04;98354.94;5098707;28;8812;-59
2023/03/08 00:21:31;;;;;;;;;4.00;4.00;;;;;1.99;81.93;98349.59;5097052;28;8832;-60
2023/03/08 00:23:58;;;;;;;;;9.20;9.00;;;;;1.98;81.57;98342.66;5099328;28;8851;-59
2023/03/08 00:26:26;;;;;;;;;7.60;5.80;;;;;1.97;82.01;98347.06;5099386;28;8832;-60
2023/03/08 00:28:54;;;;;;;;;1.80;0.40;;;;;1.96;82.10;98340.13;5098533;28;8861;-59
2023/03/08 00:31:22;;;;;;;;;4.40;4.40;;;;;1.96;81.34;98355.88;5098779;28;8816;-59
2023/03/08 00:33:49;;;;;;;;;5.60;5.60;;;;;1.95;81.65;98353.34;5098297;28;8831;-59
2023/03/08 00:36:17;;;;;;;;;7.00;7.00;;;;;1.93;82.27;98353.50;5099042;28;8836;-57
2023/03/08 00:38:45;;;;;;;;;7.80;7.00;;;;;1.93;81.78;98353.50;5099058;28;8850;-59
2023/03/08 00:41:12;;;;;;;;;7.40;6.80;;;;;1.91;82.11;98347.47;5098570;28;8832;-60
2023/03/08 00:43:41;;;;;;;;;5.40;4.40;;;;;1.91;81.79;98337.00;5097815;28;8852;-59
2023/03/08 00:46:08;;;;;;;;;11.40;8.80;;;;;1.90;81.37;98348.44;5098607;28;8937;-60
2023/03/08 00:48:37;;;;;;;;;5.00;5.00;;;;;1.90;82.01;98345.81;5085532;28;8820;-60
2023/03/08 00:51:04;;;;;;;;;6.60;5.60;;;;;1.90;81.66;98342.38;5097798;28;8832;-60
2023/03/08 00:53:32;;;;;;;;;9.40;8.80;;;;;1.90;81.82;98345.00;5098248;28;8808;-59
2023/03/08 00:55:59;;;;;;;;;7.60;7.20;;;;;1.90;81.89;98340.56;5098032;28;8827;-59
2023/03/08 00:58:27;;;;;;;;;6.80;6.00;;;;;1.90;81.50;98337.94;5091992;28;8848;-59
2023/03/08 01:00:55;;;;;;;;;11.00;9.40;;;;;1.90;81.93;98343.19;5077370;28;8820;-60
2023/03/08 01:03:23;;;;;;;;;8.60;6.60;;;;;1.89;81.92;98346.75;5077354;28;8839;-60
2023/03/08 01:05:50;;;;;;;;;1.40;1.00;;;;;1.89;81.80;98349.38;5077754;28;8859;-60
2023/03/08 01:08:18;;;;;;;;;7.00;5.00;;;;;1.90;81.83;98337.13;5081844;28;9500;-59
2023/03/08 01:10:46;;;;;;;;;6.20;4.00;;;;;1.89;81.86;98340.69;5096600;28;8822;-59
2023/03/08 01:13:14;;;;;;;;;8.20;6.00;;;;;1.89;82.05;98341.50;5090030;28;8820;-59
2023/03/08 01:15:42;;;;;;;;;13.40;9.20;;;;;1.88;82.17;98331.97;5080722;28;8796;-60
2023/03/08 01:18:09;;;;;;;;;8.20;7.00;;;;;1.89;82.21;98338.06;5094587;28;8843;-60
2023/03/08 01:20:37;;;;;;;;;7.60;6.00;;;;;1.88;81.65;98329.34;5082307;28;8822;-60
2023/03/08 01:23:04;;;;;;;;;4.80;4.40;;;;;1.87;81.31;98330.28;5087118;28;8822;-59
2023/03/08 01:25:32;;;;;;;;;5.60;4.80;;;;;1.87;81.56;98318.94;5092290;28;8801;-59
2023/03/08 01:28:00;;;;;;;;;7.40;6.60;;;;;1.87;82.01;98317.19;5086079;28;8853;-57
2023/03/08 01:30:28;;;;;;;;;9.00;7.80;;;;;1.89;81.93;98323.16;5077773;28;8832;-59
2023/03/08 01:32:55;;;;;;;;;5.80;5.40;;;;;1.89;81.91;98317.91;5081627;28;8826;-59
2023/03/08 01:35:23;;;;;;;;;6.00;4.00;;;;;1.90;81.37;98319.56;5097391;28;8815;-58
2023/03/08 01:37:53;;;;;;;;;6.20;6.20;;;;;1.91;81.34;98317.78;5085530;28;8827;-59
2023/03/08 01:40:20;;;;;;;;;9.00;6.40;;;;;1.90;81.76;98303.81;5095432;28;8828;-60
2023/03/08 01:42:53;;;;;;;;;4.80;4.00;;;;;1.90;81.91;98303.00;5078030;28;8913;-59
2023/03/08 01:45:20;;;;;;;;;6.80;6.80;;;;;1.91;81.68;98308.13;5077107;28;8828;-60
2023/03/08 01:47:48;;;;;;;;;6.80;6.20;;;;;1.91;82.14;98294.19;5077233;28;8819;-60
2023/03/08 01:50:16;;;;;;;;;3.80;3.80;;;;;1.91;81.52;98299.44;5077627;28;8838;-60
2023/03/08 01:52:45;;;;;;;;;5.20;5.20;;;;;1.91;82.18;98279.25;5076799;28;8827;-59
2023/03/08 01:55:14;;;;;;;;;3.00;3.00;;;;;1.92;81.65;98296.72;5076983;28;8838;-59
2023/03/08 01:57:42;;;;;;;;;4.00;3.20;;;;;1.90;82.37;98282.84;5080457;28;8917;-59
2023/03/08 02:00:09;;;;;;;;;6.00;4.00;;;;;1.90;82.49;98293.34;5096683;28;8853;-59
2023/03/08 02:02:37;;;;;;;;;4.00;4.00;;;;;1.91;81.44;98292.38;5096684;28;8843;-59
2023/03/08 02:05:05;;;;;;;;;6.00;4.00;;;;;1.89;81.65;98278.53;5097166;28;8866;-60
2023/03/08 02:07:33;;;;;;;;;5.80;5.00;;;;;1.89;81.65;98281.16;5096520;28;8808;-59
2023/03/08 02:10:00;;;;;;;;;8.80;6.40;;;;;1.89;82.16;98270.66;5096863;28;9540;-60
2023/03/08 02:12:28;;;;;;;;;6.00;5.20;;;;;1.89;81.38;98269.84;5096694;28;8839;-59
2023/03/08 02:14:56;;;;;;;;;4.20;3.80;;;;;1.87;82.23;98261.22;5096497;28;8901;-59
2023/03/08 02:17:24;;;;;;;;;4.00;3.20;;;;;1.86;82.03;98259.56;5096638;28;8832;-57
2023/03/08 02:19:51;;;;;;;;;3.00;3.00;;;;;1.86;81.58;98259.56;5096157;28;8801;-59
2023/03/08 02:22:19;;;;;;;;;4.00;4.00;;;;;1.87;81.59;98259.44;5096331;28;8840;-59
2023/03/08 02:24:46;;;;;;;;;3.60;3.60;;;;;1.87;82.04;98251.59;5095955;28;8824;-56
2023/03/08 02:27:14;;;;;;;;;8.20;7.00;;;;;1.86;82.04;98255.16;5096779;28;8820;-60
2023/03/08 02:29:42;;;;;;;;;4.80;3.60;;;;;1.86;81.86;98252.53;5096301;28;8801;-59
2023/03/08 02:32:10;;;;;;;;;5.60;4.80;;;;;1.84;81.39;98249.19;5096615;28;8851;-60
2023/03/08 02:34:37;;;;;;;;;6.00;5.20;;;;;1.82;81.59;98240.56;5096186;28;8823;-58
2023/03/08 02:37:05;;;;;;;;;4.00;4.00;;;;;1.82;81.68;98232.69;5096111;28;8898;-59
2023/03/08 02:39:33;;;;;;;;;6.20;5.60;;;;;1.82;82.08;98234.50;5096375;28;8804;-60
2023/03/08 02:42:01;;;;;;;;;4.80;4.00;;;;;1.81;82.05;98233.66;5096123;28;8836;-59
2023/03/08 02:44:28;;;;;;;;;5.60;3.80;;;;;1.81;81.96;98222.34;5096347;28;8828;-59
2023/03/08 02:46:56;;;;;;;;;5.20;4.40;;;;;1.80;82.40;98218.88;5096139;28;8832;-59
2023/03/08 02:49:23;;;;;;;;;6.00;4.00;;;;;1.82;81.86;98219.59;5095617;28;8842;-59
2023/03/08 02:51:51;;;;;;;;;7.20;5.00;;;;;1.81;81.62;98224.97;5096227;28;8897;-60
2023/03/08 02:54:19;;;;;;;;;7.80;4.40;;;;;1.81;82.58;98228.41;5095537;28;9571;-58
2023/03/08 02:56:47;;;;;;;;;4.80;4.40;;;;;1.82;81.90;98226.63;5095333;28;8816;-59
2023/03/08 02:59:14;;;;;;;;;3.20;3.20;;;;;1.83;82.43;98225.69;5096164;28;8920;-59
2023/03/08 03:01:42;;;;;;;;;6.60;4.40;;;;;1.83;82.43;98220.44;5092445;28;8865;-60
2023/03/08 03:04:10;;;;;;;;;4.40;4.40;;;;;1.82;81.47;98214.34;5075755;28;8883;-59
2023/03/08 03:06:37;;;;;;;;;6.80;6.00;;;;;1.83;81.77;98215.19;5075718;28;8866;-60
2023/03/08 03:09:05;;;;;;;;;4.80;4.40;;;;;1.83;82.05;98212.56;5075362;28;8828;-60
2023/03/08 03:11:33;;;;;;;;;6.40;5.60;;;;;1.82;81.79;98200.41;5077453;28;9502;-60
2023/03/08 03:14:00;;;;;;;;;3.80;3.20;;;;;1.82;81.84;98214.34;5083560;28;8812;-57
2023/03/08 03:16:28;;;;;;;;;6.00;4.40;;;;;1.81;82.17;98220.53;5074678;28;8808;-57
2023/03/08 03:18:55;;;;;;;;;3.80;3.80;;;;;1.80;82.11;98212.75;5086910;28;8810;-60
2023/03/08 03:21:23;;;;;;;;;3.00;3.00;;;;;1.80;82.03;98213.63;5081814;28;8825;-59
2023/03/08 03:23:51;;;;;;;;;3.40;3.40;;;;;1.80;81.84;98208.38;5092146;28;8868;-59
2023/03/08 03:26:19;;;;;;;;;4.00;3.20;;;;;1.79;82.42;98211.94;5088456;28;8820;-59
2023/03/08 03:28:46;;;;;;;;;3.00;3.00;;;;;1.79;81.90;98201.44;5093848;28;9593;-59
2023/03/08 03:31:14;;;;;;;;;3.20;3.00;;;;;1.78;81.62;98210.28;5090646;28;8824;-60
2023/03/08 03:33:41;;;;;;;;;4.40;4.00;;;;;1.79;82.20;98211.94;5076508;28;8889;-58
2023/03/08 03:36:09;;;;;;;;;6.00;6.00;;;;;1.78;81.63;98212.03;5075193;28;8917;-60
2023/03/08 03:38:38;;;;;;;;;6.60;6.00;;;;;1.78;81.79;98212.91;5075437;28;8816;-60
2023/03/08 03:41:07;;;;;;;;;8.20;6.60;;;;;1.78;81.69;98205.03;5076590;28;8956;-60
2023/03/08 03:43:34;;;;;;;;;4.00;4.00;;;;;1.78;81.54;98202.41;5086231;28;8820;-59
2023/03/08 03:46:04;;;;;;;;;4.00;4.00;;;;;1.78;81.93;98199.78;5074834;28;8897;-59
2023/03/08 03:48:31;;;;;;;;;4.00;4.00;;;;;1.79;82.01;98195.34;5074987;28;8819;-59
2023/03/08 03:50:59;;;;;;;;;8.40;5.20;;;;;1.80;82.23;98197.03;5075227;28;8851;-60
2023/03/08 03:53:26;;;;;;;;;6.20;4.00;;;;;1.80;81.98;98192.63;5074946;28;8830;-60
2023/03/08 03:55:54;;;;;;;;;4.80;4.80;;;;;1.81;81.44;98191.66;5074719;28;8908;-60
2023/03/08 03:58:22;;;;;;;;;9.00;9.00;;;;;1.82;81.75;98195.16;5083307;28;8844;-59
2023/03/08 04:00:50;;;;;;;;;3.40;3.20;;;;;1.82;82.33;98190.72;5094203;28;8838;-59
2023/03/08 04:03:17;;;;;;;;;6.00;3.80;;;;;1.82;82.39;98195.16;5094056;28;8824;-58
2023/03/08 04:05:45;;;;;;;;;6.20;4.80;;;;;1.82;82.12;98193.34;5094270;28;8969;-59
2023/03/08 04:08:13;;;;;;;;;4.40;3.20;;;;;1.83;81.87;98202.06;5095123;28;8816;-59
2023/03/08 04:10:41;;;;;;;;;5.20;5.20;;;;;1.81;81.52;98191.66;5094915;28;8855;-59
2023/03/08 04:13:08;;;;;;;;;0.60;0.60;;;;;1.83;82.17;98181.91;5095001;28;8827;-59
2023/03/08 04:15:36;;;;;;;;;3.00;1.00;;;;;1.84;81.88;98182.75;5095605;28;8847;-60
2023/03/08 04:18:03;;;;;;;;;0.20;0.00;;;;;1.83;81.95;98171.41;5095321;28;8820;-59
2023/03/08 04:20:31;;;;;;;;;6.80;6.00;;;;;1.82;81.59;98172.34;5095122;28;8920;-60
2023/03/08 04:22:59;;;;;;;;;6.80;6.40;;;;;1.83;81.85;98165.34;5094952;28;8850;-59
2023/03/08 04:25:26;;;;;;;;;3.60;2.20;;;;;1.83;81.84;98149.59;5095419;28;8828;-60
2023/03/08 04:27:54;;;;;;;;;6.00;6.00;;;;;1.84;82.47;98151.25;5095658;28;8836;-60
2023/03/08 04:30:22;;;;;;;;;6.80;6.80;;;;;1.84;82.15;98133.75;5096230;28;8848;-60
2023/03/08 04:32:49;;;;;;;;;4.20;3.40;;;;;1.84;81.88;98138.16;5099201;28;8820;-59
2023/03/08 04:35:18;;;;;;;;;6.80;3.80;;;;;1.84;82.29;98141.63;5098994;28;8905;-60
2023/03/08 04:37:45;;;;;;;;;4.00;4.00;;;;;1.84;82.01;98133.75;5098502;28;8797;-60
2023/03/08 04:40:16;;;;;;;;;6.80;6.40;;;;;1.85;81.59;98138.03;5098875;28;8836;-59
2023/03/08 04:42:43;;;;;;;;;3.40;3.00;;;;;1.85;81.44;98127.56;5098202;28;8889;-59
2023/03/08 04:45:12;;;;;;;;;0.00;0.00;;;;;1.87;82.21;98130.03;5097697;28;8828;-59
2023/03/08 04:47:40;;;;;;;;;6.00;5.20;;;;;1.87;81.50;98122.16;5098200;28;8808;-60
2023/03/08 04:50:08;;;;;;;;;3.80;3.80;;;;;1.89;81.55;98125.53;5098271;28;8840;-59
2023/03/08 04:52:36;;;;;;;;;4.00;3.20;;;;;1.87;81.45;98119.53;5097222;28;8840;-59
2023/03/08 04:55:03;;;;;;;;;6.80;5.60;;;;;1.88;82.13;98116.81;5097252;28;8913;-60
2023/03/08 04:57:31;;;;;;;;;3.00;3.00;;;;;1.88;81.88;98116.81;5097215;28;8832;-60
2023/03/08 04:59:59;;;;;;;;;5.60;4.80;;;;;1.88;81.91;98122.06;5082568;28;8813;-60
2023/03/08 05:02:26;;;;;;;;;3.60;3.00;;;;;1.89;81.40;98117.66;5077281;28;8850;-60
2023/03/08 05:04:54;;;;;;;;;3.80;3.40;;;;;1.90;82.02;98108.84;5082118;28;8944;-59
2023/03/08 05:07:22;;;;;;;;;6.80;5.60;;;;;1.90;81.75;98103.59;5097863;28;8833;-60
2023/03/08 05:09:50;;;;;;;;;4.00;4.00;;;;;1.90;81.90;98108.84;5098487;28;8826;-60
2023/03/08 05:12:17;;;;;;;;;7.20;6.60;;;;;1.90;81.80;98104.41;5095761;28;8819;-60
2023/03/08 05:14:45;;;;;;;;;4.00;2.60;;;;;1.89;81.67;98094.88;5094100;28;8809;-59
2023/03/08 05:17:13;;;;;;;;;4.00;3.40;;;;;1.91;81.69;98095.59;5077434;28;8816;-59
2023/03/08 05:19:41;;;;;;;;;4.00;4.00;;;;;1.90;81.70;98086.03;5077494;28;8832;-60
2023/03/08 05:22:08;;;;;;;;;2.20;2.20;;;;;1.91;81.48;98089.53;5086942;28;8894;-59
2023/03/08 05:24:38;;;;;;;;;4.00;4.00;;;;;1.90;81.95;98088.66;5088566;28;9551;-60
2023/03/08 05:27:06;;;;;;;;;4.40;4.00;;;;;1.91;82.26;98084.28;5095381;28;8818;-60
2023/03/08 05:29:36;;;;;;;;;2.60;1.00;;;;;1.90;81.65;98078.19;5092871;28;8840;-59
2023/03/08 05:32:03;;;;;;;;;3.20;3.20;;;;;1.91;81.80;98082.47;5076072;28;8871;-60
2023/03/08 05:34:32;;;;;;;;;3.40;3.20;;;;;1.91;81.61;98079.84;5094529;28;9288;-59
2023/03/08 05:37:00;;;;;;;;;0.20;0.20;;;;;1.92;81.85;98078.06;5076129;28;8820;-59
2023/03/08 05:39:29;;;;;;;;;3.00;2.20;;;;;1.91;82.06;98074.59;5076375;28;8828;-59
2023/03/08 05:41:57;;;;;;;;;3.00;3.00;;;;;1.92;81.58;98065.81;5082387;28;8892;-58
2023/03/08 05:44:24;;;;;;;;;3.00;3.00;;;;;1.93;81.39;98072.72;5080691;28;8843;-59
2023/03/08 05:46:52;;;;;;;;;0.40;0.40;;;;;1.92;81.24;98071.03;5076746;28;8934;-60
2023/03/08 05:49:19;;;;;;;;;3.00;3.00;;;;;1.92;81.53;98070.19;5076663;28;8853;-59
2023/03/08 05:51:47;;;;;;;;;3.20;3.20;;;;;1.91;81.84;98058.84;5077403;28;9558;-60
2023/03/08 05:54:15;;;;;;;;;6.60;4.80;;;;;1.90;81.32;98051.94;5077214;28;8869;-59
2023/03/08 05:56:43;;;;;;;;;2.60;1.40;;;;;1.88;81.29;98048.59;5076565;28;8850;-59
2023/03/08 05:59:10;;;;;;;;;2.80;2.80;;;;;1.85;81.71;98043.59;5092389;28;8852;-60
2023/03/08 06:01:38;;;;;;;;;4.80;4.80;;;;;1.81;81.25;98036.88;5097205;28;8846;-60
2023/03/08 06:04:06;;;;;;;;;3.00;3.00;;;;;1.81;81.19;98034.28;5096435;28;8812;-60
2023/03/08 06:06:34;;;;;;;;;3.40;3.40;;;;;1.79;81.76;98030.94;5096576;28;8828;-60
2023/03/08 06:09:02;;;;;;;;;8.00;5.60;;;;;1.77;81.84;98024.97;5095247;28;9510;-60
2023/03/08 06:11:30;;;;;;;;;9.20;7.20;;;;;1.77;81.77;98024.13;5093824;28;9474;-60
2023/03/08 06:13:58;;;;;;;;;11.60;10.00;;;;;1.76;81.38;98030.31;5095526;28;8816;-60
2023/03/08 06:16:26;;;;;;;;;15.40;12.40;;;;;1.75;82.15;98026.84;5095319;28;8828;-61
2023/03/08 06:18:54;;;;;;;;;14.40;12.20;;;;;1.74;81.51;98025.19;5094788;28;8832;-60
2023/03/08 06:21:22;;;;;;;;;3.60;2.20;;;;;1.71;81.57;98017.56;5094831;28;9533;-60
2023/03/08 06:23:49;;;;;;;;;7.20;6.60;;;;;1.68;81.92;98011.72;5094579;28;8843;-61
2023/03/08 06:26:17;;;;;;;;;2.20;1.20;;;;;1.68;82.44;98020.38;5095151;28;8828;-60
2023/03/08 06:28:45;;;;;;;;;2.20;0.80;;;;;1.68;81.78;98014.31;5095291;28;8828;-60
2023/03/08 06:31:12;;;;;;;;;3.40;3.20;;;;;1.65;82.07;98023.25;5095405;28;8835;-61
2023/03/08 06:33:40;;;;;;;;;3.00;3.00;;;;;1.64;81.79;98021.59;5094495;28;8851;-60
2023/03/08 06:36:08;;;;;;;;;1.00;1.00;;;;;1.63;82.15;98019.91;5095244;28;8844;-60
2023/03/08 06:38:36;;;;;;;;;0.20;0.20;;;;;1.62;81.97;98015.63;5095085;28;8812;-60
2023/03/08 06:41:04;;;;;;;;;0.20;0.20;;;;;1.60;82.11;98014.88;5094289;28;8882;-60
2023/03/08 06:43:32;;;;;;;;;0.00;0.00;;;;;1.59;81.99;98000.09;5093316;28;8854;-60
2023/03/08 06:45:59;;;;;;;;;3.00;1.00;;;;;1.57;81.78;97996.78;5092242;28;8862;-59
2023/03/08 06:48:27;;;;;;;;;0.40;0.40;;;;;1.57;81.76;97991.53;5092257;28;8866;-59
2023/03/08 06:50:55;;;;;;;;;1.00;1.00;;;;;1.58;81.64;97984.47;5091711;28;8836;-60
2023/03/08 06:53:23;;;;;;;;;2.60;2.60;;;;;1.57;82.26;97981.03;5090519;28;8952;-58
2023/03/08 06:55:51;;;;;;;;;0.40;0.40;;;;;1.56;81.78;97978.53;5089964;28;8835;-60
2023/03/08 06:58:18;;;;;;;;;0.40;0.40;;;;;1.53;82.18;97974.34;5088561;28;8908;-59
2023/03/08 07:00:46;;;;;;;;;1.00;1.00;;;;;1.53;82.07;97965.66;5088604;28;8856;-58
2023/03/08 07:03:15;;;;;;;;;0.00;0.00;;;;;1.54;81.82;97964.69;5088810;28;8850;-59
2023/03/08 07:05:43;;;;;;;;;0.40;0.40;;;;;1.54;81.73;97957.69;5088314;28;8850;-59
2023/03/08 07:08:11;;;;;;;;;0.40;0.40;;;;;1.55;81.44;97951.47;5088673;28;9484;-59
2023/03/08 07:10:38;;;;;;;;;0.60;0.60;;;;;1.54;81.72;97951.59;5089810;28;8818;-60
2023/03/08 07:13:06;;;;;;;;;0.00;0.00;;;;;1.50;82.14;97950.97;5090953;28;8842;-59
2023/03/08 07:15:34;;;;;;;;;1.40;0.60;;;;;1.49;81.89;97945.84;5091714;28;8838;-59
2023/03/08 07:18:02;;;;;;;;;0.00;0.00;;;;;1.49;81.77;97941.44;5092033;28;8944;-57
2023/03/08 07:20:30;;;;;;;;;1.00;0.00;;;;;1.50;82.37;97943.13;5090634;28;8842;-59
2023/03/08 07:23:00;;;;;;;;;0.00;0.00;;;;;1.52;82.35;97943.81;5089760;28;9523;-59
2023/03/08 07:25:28;;;;;;;;;0.00;0.00;;;;;1.51;82.24;97942.16;5091821;28;8846;-57
2023/03/08 07:27:56;;;;;;;;;1.00;0.00;;;;;1.50;81.82;97935.25;5092022;28;8834;-57
2023/03/08 07:30:24;;;;;;;;;0.00;0.00;;;;;1.51;81.77;97939.53;5090749;28;8852;-57
2023/03/08 07:32:52;;;;;;;;;0.00;0.00;;;;;1.53;82.21;97934.19;5091921;28;8927;-59
2023/03/08 07:35:20;;;;;;;;;0.00;0.00;;;;;1.54;81.64;97928.84;5092045;28;8846;-59
2023/03/08 07:37:47;;;;;;;;;0.00;0.00;;;;;1.58;81.64;97925.00;5089541;28;9492;-59
2023/03/08 07:40:16;;;;;;;;;1.00;1.00;;;;;1.62;81.86;97928.25;5090205;28;8945;-59
2023/03/08 07:42:44;;;;;;;;;1.00;1.00;;;;;1.63;82.16;97919.41;5091599;28;8953;-60
2023/03/08 07:45:12;;;;;;;;;0.00;0.00;;;;;1.66;82.01;97920.00;5091432;28;8837;-59
2023/03/08 07:47:40;;;;;;;;;0.20;0.20;;;;;1.68;81.75;97920.72;5091474;28;8854;-60
2023/03/08 07:50:08;;;;;;;;;0.00;0.00;;;;;1.70;81.44;97912.75;5091775;28;8814;-59
2023/03/08 07:52:36;;;;;;;;;0.60;0.60;;;;;1.70;82.18;97907.50;5091822;28;8903;-59
2023/03/08 07:55:03;;;;;;;;;0.40;0.40;;;;;1.74;81.77;97908.97;5090996;28;8848;-59
2023/03/08 07:57:31;;;;;;;;;0.00;0.00;;;;;1.77;81.69;97904.31;5090933;28;8850;-60
2023/03/08 07:59:59;;;;;;;;;0.00;0.00;;;;;1.79;81.54;97902.41;5090883;28;8988;-59
2023/03/08 08:02:26;;;;;;;;;0.80;0.80;;;;;1.83;81.79;97892.50;5092010;28;9508;-58
2023/03/08 08:04:54;;;;;;;;;0.00;0.00;;;;;1.83;81.84;97893.31;5092962;28;8910;-60
2023/03/08 08:07:22;;;;;;;;;1.00;1.00;;;;;1.84;81.40;97888.91;5095631;28;8826;-59
2023/03/08 08:09:51;;;;;;;;;0.40;0.40;;;;;1.86;82.15;97893.09;5096124;28;8873;-59
2023/03/08 08:12:19;;;;;;;;;1.00;1.00;;;;;1.87;81.16;97881.66;5095664;28;8952;-59
2023/03/08 08:14:47;;;;;;;;;0.20;0.20;;;;;1.86;82.38;97887.84;5095218;28;8848;-59
2023/03/08 08:17:15;;;;;;;;;1.00;1.00;;;;;1.87;81.72;97870.31;5094677;28;8826;-59
2023/03/08 08:19:43;;;;;;;;;0.00;0.00;;;;;1.86;81.53;97866.00;5094168;28;8924;-59
2023/03/08 08:22:11;;;;;;;;;1.00;1.00;;;;;1.89;81.70;97856.13;5094645;28;8918;-59
2023/03/08 08:24:39;;;;;;;;;2.20;1.20;;;;;1.91;81.74;97848.94;5094311;28;9508;-59
2023/03/08 08:27:07;;;;;;;;;0.20;0.20;;;;;1.92;81.59;97845.41;5094365;28;8858;-60
2023/03/08 08:29:35;;;;;;;;;1.00;1.00;;;;;1.91;81.46;97850.75;5096083;28;9542;-59
2023/03/08 08:32:03;;;;;;;;;1.00;1.00;;;;;1.92;81.38;97842.78;5095800;28;8961;-59
2023/03/08 08:34:31;;;;;;;;;1.00;1.00;;;;;1.93;81.84;97835.72;5097242;28;8822;-60
2023/03/08 08:36:59;;;;;;;;;1.00;1.00;;;;;1.94;81.48;97834.75;5095981;28;9499;-60
2023/03/08 08:39:27;;;;;;;;;1.00;1.00;;;;;1.93;81.73;97830.47;5095893;28;8837;-59
2023/03/08 08:41:55;;;;;;;;;0.20;0.20;;;;;1.92;81.50;97828.81;5095960;28;8841;-60
2023/03/08 08:44:23;;;;;;;;;1.00;1.00;;;;;1.92;81.61;97829.66;5094440;28;8907;-59
2023/03/08 08:46:51;;;;;;;;;0.00;0.00;;;;;1.94;81.86;97822.50;5094355;28;8854;-59
2023/03/08 08:49:18;;;;;;;;;0.00;0.00;;;;;1.94;82.19;97822.50;5094681;28;8842;-59
2023/03/08 08:51:46;;;;;;;;;0.00;0.00;;;;;1.96;82.04;97815.31;5094139;28;8880;-59
2023/03/08 08:54:15;;;;;;;;;0.00;0.00;;;;;1.97;81.99;97806.50;5094125;28;8854;-59
2023/03/08 08:56:43;;;;;;;;;0.40;0.40;;;;;1.99;81.29;97804.56;5094290;28;8834;-58
2023/03/08 08:59:11;;;;;;;;;0.60;0.00;;;;;2.00;81.61;97797.56;5094197;28;8846;-60
2023/03/08 09:01:42;;;;;;;;;1.80;1.00;;;;;2.01;81.75;97800.06;5094665;28;9253;-60
2023/03/08 09:04:10;;;;;;;;;0.80;0.80;;;;;2.03;81.86;97800.75;5094626;28;8939;-59
2023/03/08 09:06:39;;;;;;;;;1.00;1.00;;;;;2.04;81.56;97791.94;5094682;28;8857;-60
2023/03/08 09:09:06;;;;;;;;;1.40;0.40;;;;;2.04;81.65;97778.00;5093724;28;8934;-58
2023/03/08 09:11:34;;;;;;;;;3.00;1.40;;;;;2.02;81.58;97778.09;5094649;28;8833;-60
2023/03/08 09:14:18;;;;;;;;;3.60;3.60;;;;;2.02;81.75;97782.50;5094868;28;8845;-59
2023/03/08 09:16:46;;;;;;;;;6.00;6.00;;;;;2.03;81.67;97776.31;5094129;28;8869;-60
2023/03/08 09:19:14;;;;;;;;;2.60;2.60;;;;;2.05;81.39;97775.22;5093002;28;8864;-59
2023/03/08 09:21:42;;;;;;;;;4.80;4.80;;;;;2.09;81.99;97771.41;5093724;28;8826;-58
2023/03/08 09:24:10;;;;;;;;;3.60;3.20;;;;;2.16;81.23;97769.97;5093490;28;8826;-59
2023/03/08 09:26:38;;;;;;;;;0.80;0.80;;;;;2.21;81.85;97759.09;5093093;28;8853;-59
2023/03/08 09:29:06;;;;;;;;;1.00;1.00;;;;;2.22;81.13;97764.22;5093317;28;8849;-59
2023/03/08 09:31:34;;;;;;;;;1.00;1.00;;;;;2.25;81.36;97765.75;5093957;28;9507;-60
2023/03/08 09:34:07;;;;;;;;;0.00;0.00;;;;;2.28;81.48;97752.38;5093603;28;8922;-59
2023/03/08 09:36:38;;;;;;;;;0.80;0.00;;;;;2.29;81.09;97746.16;5094070;28;8818;-59
2023/03/08 09:39:07;;;;;;;;;0.40;0.40;;;;;2.29;80.95;97743.53;5094196;28;8850;-60
2023/03/08 09:41:35;;;;;;;;;1.00;0.40;;;;;2.29;81.50;97749.63;5094184;28;8984;-59
2023/03/08 09:44:03;;;;;;;;;1.00;1.00;;;;;2.32;80.67;97743.28;5093295;28;8850;-58
2023/03/08 09:46:31;;;;;;;;;1.00;1.00;;;;;2.33;81.46;97740.53;5093571;28;8849;-59
2023/03/08 09:48:59;;;;;;;;;1.80;1.80;;;;;2.34;81.31;97736.97;5093565;28;8826;-59
2023/03/08 09:51:28;;;;;;;;;3.40;2.60;;;;;2.37;81.07;97736.72;5093496;28;8833;-59
2023/03/08 09:53:56;;;;;;;;;0.00;0.00;;;;;2.41;80.92;97729.44;5091897;28;8830;-59
2023/03/08 09:56:24;;;;;;;;;1.00;1.00;;;;;2.43;80.92;97730.94;5091456;28;8848;-59
2023/03/08 09:58:52;;;;;;;;;1.00;0.60;;;;;2.44;81.47;97721.28;5091533;28;8850;-59
2023/03/08 10:01:21;;;;;;;;;1.40;1.40;;;;;2.46;80.95;97730.72;5091459;28;8841;-59
2023/03/08 10:03:49;;;;;;;;;3.60;3.00;;;;;2.56;80.65;97730.78;5092581;28;8855;-59
2023/03/08 10:06:18;;;;;;;;;6.00;3.00;;;;;2.67;80.89;97722.84;5093464;28;8854;-59
2023/03/08 10:08:48;;;;;;;;;1.00;1.00;;;;;2.81;80.62;97725.16;5094238;28;8818;-60
2023/03/08 10:11:16;;;;;;;;;1.00;1.00;;;;;2.90;79.78;97722.59;5094468;28;8851;-60
2023/03/08 10:13:44;;;;;;;;;0.00;0.00;;;;;2.97;80.54;97710.59;5094362;28;8935;-59
2023/03/08 10:16:12;;;;;;;;;0.00;0.00;;;;;3.01;80.27;97706.72;5093545;28;8964;-59
2023/03/08 10:18:40;;;;;;;;;0.40;0.40;;;;;3.05;80.04;97705.50;5093869;28;8833;-59
2023/03/08 10:21:09;;;;;;;;;0.00;0.00;;;;;3.09;80.05;97690.31;5093847;28;8895;-59
2023/03/08 10:23:37;;;;;;;;;0.00;0.00;;;;;3.13;79.72;97696.97;5093784;28;9525;-59
2023/03/08 10:26:05;;;;;;;;;0.60;0.60;;;;;3.15;80.38;97685.34;5093815;28;9565;-59
2023/03/08 10:28:34;;;;;;;;;0.00;0.00;;;;;3.18;80.32;97690.34;5092859;28;8846;-59
2023/03/08 10:31:03;;;;;;;;;0.00;0.00;;;;;3.19;79.58;97685.91;5093857;28;8829;-59
2023/03/08 10:33:31;;;;;;;;;0.00;0.00;;;;;3.20;79.94;97685.78;5093377;28;8846;-58
2023/03/08 10:36:00;;;;;;;;;0.60;0.60;;;;;3.22;80.18;97675.97;5093160;28;8834;-58
2023/03/08 10:38:28;;;;;;;;;0.00;0.00;;;;;3.24;79.58;97681.94;5092379;28;8856;-59
2023/03/08 10:40:57;;;;;;;;;1.40;1.40;;;;;3.22;80.13;97686.50;5093568;28;8837;-59
2023/03/08 10:43:25;;;;;;;;;0.00;0.00;;;;;3.21;79.61;97687.47;5093778;28;8829;-59
2023/03/08 10:45:54;;;;;;;;;0.40;0.40;;;;;3.25;80.05;97683.59;5091992;28;8825;-59
2023/03/08 10:48:22;;;;;;;;;1.00;1.00;;;;;3.28;79.82;97683.34;5093711;28;8845;-59
2023/03/08 10:50:50;;;;;;;;;0.00;0.00;;;;;3.36;79.79;97680.88;5093400;28;8837;-59
2023/03/08 10:53:18;;;;;;;;;1.80;1.80;;;;;3.45;79.49;97666.91;5092487;28;8868;-59
2023/03/08 10:55:46;;;;;;;;;0.40;0.40;;;;;3.50;79.66;97664.72;5092313;28;8844;-58
2023/03/08 10:58:14;;;;;;;;;1.00;0.40;;;;;3.52;79.08;97659.31;5090868;28;8858;-61
2023/03/08 11:00:42;;;;;;;;;0.20;0.00;;;;;3.57;79.37;97647.41;5091910;28;8867;-61
2023/03/08 11:03:10;;;;;;;;;0.00;0.00;;;;;3.63;79.21;97643.44;5092219;28;8842;-59
2023/03/08 11:05:38;;;;;;;;;0.00;0.00;;;;;3.67;78.75;97633.31;5091623;28;8876;-59
2023/03/08 11:08:07;;;;;;;;;0.80;0.40;;;;;3.74;79.24;97623.91;5090296;28;8834;-59
2023/03/08 11:10:34;;;;;;;;;1.00;1.00;;;;;3.84;78.94;97618.66;5089882;28;8857;-59
2023/03/08 11:13:02;;;;;;;;;0.40;0.40;;;;;3.94;78.06;97624.75;5088677;28;8869;-59
2023/03/08 11:15:30;;;;;;;;;0.00;0.00;;;;;4.01;78.16;97621.44;5089562;28;8860;-58
2023/03/08 11:17:59;;;;;;;;;1.00;1.00;;;;;4.11;78.05;97629.34;5088250;28;8891;-59
2023/03/08 11:20:27;;;;;;;;;3.00;3.00;;;;;4.17;77.95;97632.25;5088746;28;8976;-58
2023/03/08 11:22:55;;;;;;;;;1.80;1.40;;;;;4.23;77.65;97625.56;5089607;28;9071;-58
2023/03/08 11:25:23;;;;;;;;;5.60;5.20;;;;;4.30;77.90;97627.53;5091328;28;8996;-58
2023/03/08 11:27:52;;;;;;;;;1.00;1.00;;;;;4.31;77.67;97628.34;5090649;28;8880;-59
2023/03/08 11:30:20;;;;;;;;;0.60;0.60;;;;;4.36;77.61;97634.03;5090108;28;8842;-59
2023/03/08 11:32:48;;;;;;;;;1.40;1.40;;;;;4.40;77.89;97636.22;5090423;28;9588;-58
2023/03/08 11:35:16;;;;;;;;;1.40;1.40;;;;;4.42;77.62;97641.38;5089364;28;8830;-57
2023/03/08 11:37:44;;;;;;;;;1.00;1.00;;;;;4.39;78.00;97631.94;5088511;28;8837;-59
2023/03/08 11:40:12;;;;;;;;;3.00;1.80;;;;;4.37;77.63;97617.25;5087902;28;8842;-58
2023/03/08 11:42:40;;;;;;;;;1.00;0.40;;;;;4.31;77.84;97616.00;5089698;28;8842;-59
2023/03/08 11:45:08;;;;;;;;;0.80;0.20;;;;;4.27;77.85;97611.97;5089862;28;9013;-59
2023/03/08 11:47:37;;;;;;;;;1.00;1.00;;;;;4.28;78.09;97621.53;5089245;28;8833;-58
2023/03/08 11:50:05;;;;;;;;;3.00;2.60;;;;;4.27;78.01;97622.50;5089947;28;8837;-59
2023/03/08 11:52:33;;;;;;;;;3.00;1.00;;;;;4.24;78.02;97607.00;5090872;28;8829;-57
2023/03/08 11:55:01;;;;;;;;;3.00;3.00;;;;;4.20;78.54;97605.59;5091383;28;8842;-59